Time;durP1;ratioP1;P1;durP2;ratioP2;P2;SDS_P1;SDS_P2;PMS_P1;PMS_P2;Temp;Humidity;BMP_temperature;BMP_pressure;BME280_temperature;BME280_humidity;BME280_pressure;Samples;Min_cycle;Max_cycle;Signal;HPM_P1;HPM_P2
2021/07/19 00:02:21;;;;;;;6.95;4.70;;;20.30;99.90;;;;;;5046529;28;20040;-68
2021/07/19 00:04:46;;;;;;;6.60;4.75;;;20.30;99.90;;;;;;5047485;28;20036;-68
2021/07/19 00:07:12;;;;;;;6.85;4.53;;;20.20;99.90;;;;;;5018847;28;20032;-68
2021/07/19 00:09:44;;;;;;;6.40;4.60;;;20.20;99.90;;;;;;5049694;28;20036;-68
2021/07/19 00:12:14;;;;;;;6.75;4.43;;;20.20;99.90;;;;;;5034036;28;20112;-68
2021/07/19 00:14:41;;;;;;;6.53;4.50;;;20.20;99.90;;;;;;5049743;28;20040;-68
2021/07/19 00:17:08;;;;;;;7.32;4.70;;;20.20;99.90;;;;;;5050297;28;20091;-68
2021/07/19 00:19:34;;;;;;;6.50;4.35;;;20.10;99.90;;;;;;5066444;28;20643;-68
2021/07/19 00:22:02;;;;;;;7.70;4.80;;;20.10;99.90;;;;;;5048920;28;20036;-67
2021/07/19 00:24:28;;;;;;;8.10;4.53;;;20.10;99.90;;;;;;5032377;28;20032;-68
2021/07/19 00:26:53;;;;;;;7.45;4.40;;;20.00;99.90;;;;;;5051238;28;20437;-70
2021/07/19 00:29:19;;;;;;;6.25;4.13;;;19.90;99.90;;;;;;5030392;28;20056;-70
2021/07/19 00:31:44;;;;;;;6.70;4.47;;;20.00;99.90;;;;;;5050942;28;20101;-70
2021/07/19 00:34:10;;;;;;;7.57;4.18;;;20.00;99.90;;;;;;5050605;28;20075;-68
2021/07/19 00:36:36;;;;;;;7.05;4.50;;;20.00;99.90;;;;;;5065408;28;20512;-68
2021/07/19 00:39:10;;;;;;;6.47;4.35;;;20.00;99.90;;;;;;5032131;28;21989;-69
2021/07/19 00:41:38;;;;;;;7.03;4.38;;;20.00;99.90;;;;;;5046494;28;20029;-70
2021/07/19 00:44:05;;;;;;;7.00;4.68;;;20.00;99.90;;;;;;5032808;28;20028;-70
2021/07/19 00:46:31;;;;;;;7.00;4.38;;;19.90;99.90;;;;;;5049575;28;20028;-70
2021/07/19 00:48:57;;;;;;;7.75;4.38;;;19.90;99.90;;;;;;5050059;28;20098;-70
2021/07/19 00:51:22;;;;;;;10.35;4.70;;;19.90;99.90;;;;;;5066357;28;20347;-70
2021/07/19 00:53:48;;;;;;;7.55;4.40;;;19.90;99.90;;;;;;5030932;28;20066;-70
2021/07/19 00:56:14;;;;;;;7.00;4.28;;;19.80;99.90;;;;;;5065259;28;20029;-71
2021/07/19 00:58:39;;;;;;;6.45;4.55;;;19.80;99.90;;;;;;5048073;28;20113;-70
2021/07/19 01:01:05;;;;;;;8.07;4.65;;;19.80;99.90;;;;;;5063048;28;20098;-70
2021/07/19 01:03:31;;;;;;;7.75;4.35;;;19.80;99.90;;;;;;5047382;28;20040;-71
2021/07/19 01:06:00;;;;;;;7.10;4.32;;;19.70;99.90;;;;;;5063746;28;20155;-70
2021/07/19 01:08:26;;;;;;;6.43;4.28;;;19.70;99.90;;;;;;5029707;28;20021;-70
2021/07/19 01:10:51;;;;;;;6.78;4.32;;;19.70;99.90;;;;;;5019491;28;20905;-70
2021/07/19 01:13:17;;;;;;;7.85;4.60;;;19.70;99.90;;;;;;5014135;28;20024;-70
2021/07/19 01:15:45;;;;;;;7.18;4.25;;;19.70;99.90;;;;;;5046022;28;20423;-70
2021/07/19 01:18:11;;;;;;;5.40;4.18;;;19.60;99.90;;;;;;5030125;28;20095;-70
2021/07/19 01:20:44;;;;;;;6.78;4.47;;;19.60;99.90;;;;;;5030881;28;20682;-70
2021/07/19 01:23:47;;;;;;;7.95;4.40;;;19.60;99.90;;;;;;5045501;28;20048;-71
2021/07/19 01:26:39;;;;;;;7.25;4.28;;;19.60;99.90;;;;;;5047692;28;20093;-70
2021/07/19 01:29:06;;;;;;;7.03;4.30;;;19.50;99.90;;;;;;5046788;28;20029;-69
2021/07/19 01:31:35;;;;;;;6.82;4.35;;;19.50;99.90;;;;;;5044806;28;20033;-70
2021/07/19 01:34:13;;;;;;;5.95;4.38;;;19.50;99.90;;;;;;5030503;28;20029;-70
2021/07/19 01:36:46;;;;;;;7.88;4.28;;;19.50;99.90;;;;;;5030427;28;20028;-70
2021/07/19 01:39:11;;;;;;;7.00;4.63;;;19.50;99.90;;;;;;5078523;28;20119;-70
2021/07/19 01:41:38;;;;;;;7.10;4.47;;;19.50;99.90;;;;;;5063130;28;20385;-70
2021/07/19 01:44:04;;;;;;;6.63;4.32;;;19.40;99.90;;;;;;5063159;28;20078;-70
2021/07/19 01:46:29;;;;;;;8.27;4.57;;;19.40;99.90;;;;;;5062779;28;20054;-70
2021/07/19 01:48:56;;;;;;;6.22;4.60;;;19.40;99.90;;;;;;5045218;28;20459;-70
2021/07/19 01:51:22;;;;;;;8.35;4.45;;;19.40;99.90;;;;;;5046035;28;20024;-70
2021/07/19 01:53:50;;;;;;;5.40;3.97;;;19.30;99.90;;;;;;5062590;28;20356;-70
2021/07/19 01:56:18;;;;;;;7.40;4.53;;;19.30;99.90;;;;;;5078727;28;20029;-71
2021/07/19 01:58:46;;;;;;;6.93;4.43;;;19.30;99.90;;;;;;4992706;28;1129172;-70
2021/07/19 02:01:12;;;;;;;7.60;4.72;;;19.30;99.90;;;;;;5042786;28;20044;-70
2021/07/19 02:03:38;;;;;;;8.27;4.57;;;19.20;99.90;;;;;;5010168;28;20033;-70
2021/07/19 02:06:05;;;;;;;7.18;4.15;;;19.20;99.90;;;;;;5027088;28;20030;-70
2021/07/19 02:08:31;;;;;;;9.32;4.65;;;19.20;99.90;;;;;;5027226;28;20040;-70
2021/07/19 02:10:56;;;;;;;6.80;4.55;;;19.20;99.90;;;;;;5011262;28;20033;-70
2021/07/19 02:13:23;;;;;;;8.02;4.47;;;19.20;99.90;;;;;;5028402;28;20100;-70
2021/07/19 02:15:51;;;;;;;6.43;4.28;;;19.10;99.90;;;;;;5010437;28;20030;-70
2021/07/19 02:18:16;;;;;;;6.43;4.50;;;19.10;99.90;;;;;;5042555;28;20029;-70
2021/07/19 02:20:43;;;;;;;6.68;4.78;;;19.00;99.90;;;;;;4993007;28;20045;-70
2021/07/19 02:23:11;;;;;;;7.00;4.40;;;19.00;99.90;;;;;;4994822;28;20034;-71
2021/07/19 02:25:39;;;;;;;6.50;4.55;;;19.00;99.90;;;;;;5010693;28;20554;-70
2021/07/19 02:28:04;;;;;;;7.72;4.30;;;18.90;99.90;;;;;;5025395;28;20337;-70
2021/07/19 02:30:32;;;;;;;6.72;4.50;;;18.90;99.90;;;;;;5010009;28;20068;-70
2021/07/19 02:32:58;;;;;;;7.72;4.55;;;18.90;99.90;;;;;;5011014;28;20029;-70
2021/07/19 02:35:31;;;;;;;6.72;4.90;;;18.90;99.90;;;;;;5010939;28;20115;-70
2021/07/19 02:38:05;;;;;;;7.03;4.60;;;18.80;99.90;;;;;;5012040;28;20040;-70
2021/07/19 02:40:31;;;;;;;7.57;4.93;;;18.80;99.90;;;;;;5026842;28;20091;-70
2021/07/19 02:43:01;;;;;;;8.35;4.80;;;18.80;99.90;;;;;;5025849;28;20037;-70
2021/07/19 02:45:27;;;;;;;7.50;4.82;;;18.80;99.90;;;;;;5027386;28;20052;-71
2021/07/19 02:47:57;;;;;;;7.00;4.80;;;18.70;99.90;;;;;;5026700;28;20036;-70
2021/07/19 02:50:24;;;;;;;7.95;4.70;;;18.70;99.90;;;;;;4990800;28;20096;-70
2021/07/19 02:52:50;;;;;;;8.95;5.32;;;18.70;99.90;;;;;;5025547;28;20037;-70
2021/07/19 02:55:18;;;;;;;8.32;4.72;;;18.70;99.90;;;;;;5003023;28;20382;-70
2021/07/19 02:57:46;;;;;;;8.35;4.80;;;18.70;99.90;;;;;;5015592;28;20650;-70
2021/07/19 03:00:15;;;;;;;6.75;4.43;;;18.60;99.90;;;;;;5028760;28;20036;-71
2021/07/19 03:02:43;;;;;;;7.95;5.05;;;18.70;99.90;;;;;;5027274;28;20094;-70
2021/07/19 03:05:12;;;;;;;9.43;4.80;;;18.60;99.90;;;;;;5045806;28;20469;-70
2021/07/19 03:07:40;;;;;;;9.32;4.90;;;18.50;99.90;;;;;;5029449;28;20036;-70
2021/07/19 03:10:08;;;;;;;7.22;4.88;;;18.50;99.90;;;;;;5046965;28;20959;-71
2021/07/19 03:12:39;;;;;;;6.78;5.00;;;18.50;99.90;;;;;;5003396;28;20033;-70
2021/07/19 03:15:06;;;;;;;6.53;4.70;;;18.50;99.90;;;;;;5045064;28;20044;-70
2021/07/19 03:17:31;;;;;;;7.75;4.75;;;18.50;99.90;;;;;;5044310;28;20773;-70
2021/07/19 03:19:57;;;;;;;8.07;5.20;;;18.40;99.90;;;;;;5018856;28;20052;-70
2021/07/19 03:22:23;;;;;;;8.15;5.18;;;18.40;99.90;;;;;;5046234;28;20106;-70
2021/07/19 03:24:50;;;;;;;8.90;5.10;;;18.40;99.90;;;;;;5030394;28;20431;-71
2021/07/19 03:27:15;;;;;;;11.60;5.25;;;18.40;99.90;;;;;;5061093;28;20101;-70
2021/07/19 03:29:41;;;;;;;7.45;5.30;;;18.40;99.90;;;;;;5028133;28;20024;-70
2021/07/19 03:32:07;;;;;;;7.57;5.22;;;18.40;99.90;;;;;;5045895;28;20032;-70
2021/07/19 03:34:33;;;;;;;9.50;5.20;;;18.40;99.90;;;;;;5029923;28;20029;-70
2021/07/19 03:37:00;;;;;;;7.85;5.22;;;18.40;99.90;;;;;;5045366;28;20103;-70
2021/07/19 03:39:26;;;;;;;8.38;5.32;;;18.40;99.90;;;;;;5028574;28;20028;-70
2021/07/19 03:41:56;;;;;;;10.18;5.20;;;18.40;99.90;;;;;;5028605;28;20089;-70
2021/07/19 03:44:22;;;;;;;7.80;4.57;;;18.40;99.90;;;;;;5046617;28;20037;-70
2021/07/19 03:46:50;;;;;;;10.20;5.18;;;18.30;99.90;;;;;;5047408;28;20040;-70
2021/07/19 03:49:17;;;;;;;7.53;5.00;;;18.40;99.90;;;;;;5062638;28;20464;-70
2021/07/19 03:51:43;;;;;;;8.38;4.85;;;18.30;99.90;;;;;;5046144;28;20573;-70
2021/07/19 03:54:11;;;;;;;7.47;5.35;;;18.30;99.90;;;;;;5029722;28;20062;-70
2021/07/19 03:56:38;;;;;;;8.38;5.22;;;18.30;99.90;;;;;;5061750;28;20056;-70
2021/07/19 03:59:04;;;;;;;8.18;5.05;;;18.20;99.90;;;;;;5045648;28;20458;-70
2021/07/19 04:01:29;;;;;;;7.72;5.00;;;18.30;99.90;;;;;;5045470;28;20032;-69
2021/07/19 04:04:04;;;;;;;7.60;5.30;;;18.30;99.90;;;;;;5045641;28;20421;-70
2021/07/19 04:06:34;;;;;;;7.57;5.03;;;18.30;99.90;;;;;;5046620;28;20041;-70
2021/07/19 04:09:00;;;;;;;7.50;4.97;;;18.20;99.90;;;;;;5025655;28;20044;-70
2021/07/19 04:11:28;;;;;;;6.93;4.80;;;18.20;99.90;;;;;;5062263;28;20037;-70
2021/07/19 04:13:57;;;;;;;8.40;5.60;;;18.20;99.90;;;;;;5061151;28;20029;-70
2021/07/19 04:16:23;;;;;;;8.38;5.40;;;18.20;99.90;;;;;;5044834;28;20021;-70
2021/07/19 04:18:51;;;;;;;7.53;5.50;;;18.10;99.90;;;;;;5028817;28;20029;-70
2021/07/19 04:21:18;;;;;;;7.55;5.85;;;18.10;99.90;;;;;;5046521;28;20731;-70
2021/07/19 04:23:44;;;;;;;8.05;5.40;;;18.10;99.90;;;;;;5028991;28;20133;-70
2021/07/19 04:26:13;;;;;;;7.75;5.72;;;18.10;99.90;;;;;;5045576;28;20541;-70
2021/07/19 04:28:42;;;;;;;9.68;5.45;;;18.10;99.90;;;;;;5047497;28;20033;-70
2021/07/19 04:31:13;;;;;;;7.65;5.70;;;18.10;99.90;;;;;;5011921;28;20032;-70
2021/07/19 04:33:43;;;;;;;7.80;5.70;;;18.10;99.90;;;;;;5011541;28;20025;-69
2021/07/19 04:36:08;;;;;;;9.43;6.00;;;18.10;99.90;;;;;;5045801;28;20053;-70
2021/07/19 04:38:34;;;;;;;10.13;5.90;;;18.10;99.90;;;;;;5027715;28;20155;-70
2021/07/19 04:41:00;;;;;;;9.23;6.00;;;18.10;99.90;;;;;;5000651;28;20037;-69
2021/07/19 04:43:28;;;;;;;9.20;6.10;;;18.10;99.90;;;;;;5046316;28;20354;-70
2021/07/19 04:45:56;;;;;;;9.20;6.07;;;18.20;99.90;;;;;;5046923;28;20051;-70
2021/07/19 04:48:22;;;;;;;7.75;5.85;;;18.20;99.90;;;;;;5046867;28;20559;-70
2021/07/19 04:50:50;;;;;;;9.85;6.13;;;18.20;99.90;;;;;;5064761;28;20087;-70
2021/07/19 04:53:18;;;;;;;9.20;5.93;;;18.30;99.90;;;;;;5050537;28;20059;-70
2021/07/19 04:55:46;;;;;;;8.77;5.95;;;18.30;99.90;;;;;;5047668;28;20033;-70
2021/07/19 04:58:13;;;;;;;9.73;6.15;;;18.40;99.90;;;;;;5015454;28;20151;-70
2021/07/19 05:00:41;;;;;;;8.60;5.97;;;18.40;99.90;;;;;;5030901;28;20036;-70
2021/07/19 05:03:08;;;;;;;9.88;5.90;;;18.50;99.90;;;;;;5031036;28;20043;-69
2021/07/19 05:05:35;;;;;;;10.18;5.93;;;18.50;99.90;;;;;;5048572;28;20126;-70
2021/07/19 05:08:00;;;;;;;10.13;5.97;;;18.60;99.90;;;;;;5032130;28;20180;-69
2021/07/19 05:10:26;;;;;;;10.05;5.80;;;18.70;99.90;;;;;;5048695;28;20021;-70
2021/07/19 05:12:52;;;;;;;10.07;5.97;;;18.80;99.90;;;;;;5046593;28;20035;-70
2021/07/19 05:15:18;;;;;;;9.38;6.07;;;18.80;99.90;;;;;;5021556;28;20481;-70
2021/07/19 05:17:44;;;;;;;9.68;5.90;;;18.90;99.90;;;;;;5032625;28;20166;-69
2021/07/19 05:20:17;;;;;;;8.85;5.85;;;18.90;99.90;;;;;;5046081;28;20082;-70
2021/07/19 05:22:51;;;;;;;9.07;5.90;;;18.90;99.90;;;;;;5015829;28;20044;-70
2021/07/19 05:25:22;;;;;;;9.27;6.07;;;19.00;99.90;;;;;;5049199;28;20033;-70
2021/07/19 05:28:06;;;;;;;12.85;6.15;;;19.00;99.90;;;;;;5064098;28;20031;-70
2021/07/19 05:30:32;;;;;;;7.97;5.75;;;19.10;99.90;;;;;;5029673;28;20847;-69
2021/07/19 05:33:00;;;;;;;9.45;5.90;;;19.10;99.90;;;;;;5030892;28;20087;-70
2021/07/19 05:35:28;;;;;;;10.85;6.10;;;19.10;99.90;;;;;;5017759;28;20688;-69
2021/07/19 05:37:54;;;;;;;11.93;5.90;;;19.20;99.90;;;;;;5029876;28;20037;-69
2021/07/19 05:40:22;;;;;;;10.55;5.88;;;19.20;99.90;;;;;;5031956;28;20033;-69
2021/07/19 05:42:47;;;;;;;9.50;5.38;;;19.10;99.90;;;;;;5049823;28;20029;-70
2021/07/19 05:45:18;;;;;;;10.27;5.70;;;19.10;99.90;;;;;;5031482;28;20039;-70
2021/07/19 05:47:46;;;;;;;9.90;5.82;;;19.10;99.90;;;;;;5029788;28;20032;-71
2021/07/19 05:50:15;;;;;;;8.75;5.72;;;19.10;99.90;;;;;;5049510;28;20025;-70
2021/07/19 05:52:43;;;;;;;10.45;5.88;;;19.10;99.90;;;;;;5032124;28;20147;-69
2021/07/19 05:55:09;;;;;;;12.60;5.95;;;19.10;99.90;;;;;;5030466;28;20100;-70
2021/07/19 05:57:35;;;;;;;9.48;5.88;;;19.10;99.90;;;;;;5030829;28;20040;-69
2021/07/19 06:00:00;;;;;;;12.13;6.25;;;19.10;99.90;;;;;;5047685;28;20036;-70
2021/07/19 06:02:27;;;;;;;9.02;5.93;;;19.20;99.90;;;;;;5063655;28;20028;-70
2021/07/19 06:04:55;;;;;;;9.65;5.55;;;19.10;99.90;;;;;;5030743;28;20033;-70
2021/07/19 06:07:23;;;;;;;9.75;5.90;;;19.20;99.90;;;;;;5030047;28;20065;-69
2021/07/19 06:09:49;;;;;;;10.45;5.80;;;19.20;99.90;;;;;;5046782;28;20116;-69
2021/07/19 06:12:14;;;;;;;10.57;6.00;;;19.30;99.90;;;;;;5048613;28;20039;-71
2021/07/19 06:14:40;;;;;;;9.73;5.68;;;19.30;99.90;;;;;;5063328;28;20025;-70
2021/07/19 06:17:09;;;;;;;10.57;5.90;;;19.30;99.90;;;;;;5048433;28;20032;-69
2021/07/19 06:19:35;;;;;;;11.10;5.90;;;19.30;99.90;;;;;;5061708;28;20061;-69
2021/07/19 06:22:00;;;;;;;10.48;6.18;;;19.30;99.90;;;;;;5061464;28;20246;-68
2021/07/19 06:24:29;;;;;;;10.73;5.80;;;19.40;99.90;;;;;;5064063;28;20114;-68
2021/07/19 06:26:54;;;;;;;9.10;5.20;;;19.40;99.90;;;;;;5047406;28;20029;-68
2021/07/19 06:29:20;;;;;;;9.20;5.50;;;19.40;99.90;;;;;;5046133;28;20024;-70
2021/07/19 06:31:46;;;;;;;10.98;5.78;;;19.50;99.90;;;;;;5027578;28;20025;-70
2021/07/19 06:34:14;;;;;;;8.98;5.32;;;19.50;99.90;;;;;;5045556;28;20029;-71
2021/07/19 06:36:42;;;;;;;8.75;5.55;;;19.50;99.90;;;;;;5046201;28;20051;-72
2021/07/19 06:39:12;;;;;;;9.75;5.53;;;19.50;99.90;;;;;;5045743;28;20099;-69
2021/07/19 06:41:38;;;;;;;9.35;5.90;;;19.50;99.90;;;;;;5045681;28;20033;-69
2021/07/19 06:44:04;;;;;;;11.38;5.70;;;19.50;99.90;;;;;;5045731;28;20075;-69
2021/07/19 06:46:32;;;;;;;8.80;5.53;;;19.50;99.90;;;;;;5027942;28;20050;-70
2021/07/19 06:48:58;;;;;;;9.10;5.18;;;19.50;99.90;;;;;;5061305;28;20033;-70
2021/07/19 06:51:23;;;;;;;9.77;5.50;;;19.60;99.90;;;;;;5026941;28;20366;-71
2021/07/19 06:53:52;;;;;;;8.32;5.10;;;19.60;99.90;;;;;;5014215;28;20037;-70
2021/07/19 06:56:17;;;;;;;9.13;5.35;;;19.70;99.90;;;;;;5061320;28;20029;-70
2021/07/19 06:58:45;;;;;;;10.02;5.43;;;19.70;99.90;;;;;;5027767;28;20049;-69
2021/07/19 07:01:13;;;;;;;8.73;4.82;;;19.70;99.90;;;;;;5046280;28;20033;-70
2021/07/19 07:03:39;;;;;;;8.75;5.20;;;19.70;99.90;;;;;;5045441;28;20033;-70
2021/07/19 07:06:09;;;;;;;12.90;5.40;;;19.90;99.90;;;;;;5045909;28;20472;-71
2021/07/19 07:08:35;;;;;;;9.40;5.38;;;19.80;99.90;;;;;;5030249;28;20024;-70
2021/07/19 07:11:00;;;;;;;6.90;4.88;;;19.90;99.90;;;;;;5027300;28;20091;-70
2021/07/19 07:13:26;;;;;;;9.23;5.10;;;19.90;99.90;;;;;;5013004;28;20083;-70
2021/07/19 07:15:54;;;;;;;8.20;5.28;;;19.90;99.90;;;;;;5010888;28;20029;-70
2021/07/19 07:18:22;;;;;;;9.15;5.30;;;19.80;99.90;;;;;;5047607;28;20397;-71
2021/07/19 07:20:49;;;;;;;11.18;5.53;;;19.90;99.90;;;;;;5045445;28;20056;-71
2021/07/19 07:23:15;;;;;;;10.93;5.55;;;19.80;99.90;;;;;;5014246;28;20028;-71
2021/07/19 07:25:40;;;;;;;8.95;5.18;;;19.80;99.90;;;;;;5044424;28;20071;-69
2021/07/19 07:28:08;;;;;;;9.48;5.22;;;19.80;99.90;;;;;;5045085;28;20112;-68
2021/07/19 07:30:39;;;;;;;10.50;5.78;;;19.80;99.90;;;;;;5045990;28;20063;-68
2021/07/19 07:33:04;;;;;;;11.73;7.80;;;19.80;99.90;;;;;;5044855;28;20517;-68
2021/07/19 07:35:30;;;;;;;8.93;5.43;;;19.80;99.90;;;;;;5045711;28;20144;-69
2021/07/19 07:37:58;;;;;;;12.23;6.25;;;19.80;99.90;;;;;;5045797;28;20044;-70
2021/07/19 07:40:24;;;;;;;10.38;5.43;;;19.90;99.90;;;;;;5044921;28;20028;-71
2021/07/19 07:42:49;;;;;;;10.27;5.75;;;20.00;99.90;;;;;;5045902;28;20043;-70
2021/07/19 07:45:17;;;;;;;10.73;5.82;;;20.00;99.90;;;;;;5026522;28;20032;-70
2021/07/19 07:47:45;;;;;;;10.45;5.82;;;19.90;99.90;;;;;;5027956;28;20045;-70
2021/07/19 07:50:11;;;;;;;8.82;5.28;;;19.90;99.90;;;;;;5045841;28;20033;-69
2021/07/19 07:52:40;;;;;;;9.82;5.45;;;19.90;99.90;;;;;;5046298;28;20021;-70
2021/07/19 07:55:06;;;;;;;7.88;5.60;;;20.00;99.90;;;;;;5045221;28;20040;-70
2021/07/19 07:57:34;;;;;;;9.48;5.47;;;20.00;99.90;;;;;;5026579;28;20057;-69
2021/07/19 08:00:07;;;;;;;9.00;5.18;;;20.10;99.90;;;;;;5060448;28;20469;-69
2021/07/19 08:02:34;;;;;;;12.38;7.00;;;20.30;99.90;;;;;;5045319;28;20033;-69
2021/07/19 08:05:02;;;;;;;10.60;5.57;;;20.60;99.90;;;;;;5026221;28;20061;-71
2021/07/19 08:07:29;;;;;;;9.23;4.88;;;20.70;99.90;;;;;;5042275;28;20043;-71
2021/07/19 08:10:00;;;;;;;7.63;5.03;;;20.80;99.90;;;;;;5045248;28;20079;-71
2021/07/19 08:12:25;;;;;;;9.33;5.10;;;20.70;99.90;;;;;;5045677;28;20032;-70
2021/07/19 08:14:53;;;;;;;8.60;4.90;;;20.70;99.90;;;;;;5044462;28;20029;-71
2021/07/19 08:17:19;;;;;;;9.13;4.93;;;20.80;99.90;;;;;;5043664;28;20040;-71
2021/07/19 08:19:45;;;;;;;8.27;5.03;;;21.00;99.90;;;;;;5027182;28;20037;-70
2021/07/19 08:22:13;;;;;;;7.97;5.00;;;21.00;99.90;;;;;;5029395;28;20402;-71
2021/07/19 08:24:43;;;;;;;8.90;4.78;;;21.10;99.90;;;;;;5012215;28;20167;-70
2021/07/19 08:27:14;;;;;;;9.00;5.00;;;21.20;99.90;;;;;;5050053;28;20041;-70
2021/07/19 08:29:42;;;;;;;8.13;5.25;;;21.30;99.90;;;;;;5049399;28;20025;-70
2021/07/19 08:32:08;;;;;;;7.60;5.18;;;21.40;99.90;;;;;;5048986;28;20545;-71
2021/07/19 08:34:38;;;;;;;10.55;4.80;;;21.50;99.90;;;;;;5047598;28;20040;-70
2021/07/19 08:37:04;;;;;;;9.35;5.60;;;21.60;99.90;;;;;;5048997;28;20033;-72
2021/07/19 08:39:29;;;;;;;8.13;5.00;;;21.60;99.90;;;;;;5047454;28;20044;-70
2021/07/19 08:41:57;;;;;;;9.88;5.30;;;21.60;98.50;;;;;;5029258;28;20044;-70
2021/07/19 08:44:23;;;;;;;7.97;4.80;;;21.80;99.90;;;;;;5064549;28;20311;-70
2021/07/19 08:46:49;;;;;;;8.73;4.80;;;22.00;99.90;;;;;;4993115;28;20120;-71
2021/07/19 08:49:14;;;;;;;9.10;5.30;;;22.10;99.90;;;;;;5049273;28;20492;-70
2021/07/19 08:51:43;;;;;;;7.68;5.00;;;22.30;99.90;;;;;;5048408;28;20707;-70
2021/07/19 08:54:14;;;;;;;9.43;4.82;;;22.20;99.10;;;;;;5048336;28;20071;-71
2021/07/19 08:56:42;;;;;;;8.50;5.13;;;22.20;99.90;;;;;;5047602;28;20026;-68
2021/07/19 08:59:13;;;;;;;8.77;5.40;;;22.00;97.20;;;;;;5030614;28;20699;-69
2021/07/19 09:01:38;;;;;;;11.25;7.40;;;22.00;97.60;;;;;;5046803;28;20454;-71
2021/07/19 09:04:04;;;;;;;10.75;6.03;;;22.00;98.20;;;;;;5043217;28;20029;-71
2021/07/19 09:06:32;;;;;;;8.35;5.97;;;22.00;99.90;;;;;;5061375;28;20028;-69
2021/07/19 09:09:02;;;;;;;11.50;7.82;;;22.10;99.30;;;;;;5031148;28;20033;-70
2021/07/19 09:11:30;;;;;;;11.38;6.65;;;22.20;99.90;;;;;;5031434;28;20024;-71
2021/07/19 09:14:03;;;;;;;12.15;7.10;;;22.20;97.30;;;;;;5031410;28;20094;-70
2021/07/19 09:16:48;;;;;;;10.55;6.70;;;22.20;96.20;;;;;;5047466;28;20136;-71
2021/07/19 09:19:24;;;;;;;9.93;6.80;;;22.20;96.90;;;;;;5005647;28;20025;-71
2021/07/19 09:21:54;;;;;;;9.63;6.97;;;22.20;99.70;;;;;;5047915;28;20134;-70
2021/07/19 09:24:22;;;;;;;10.82;7.80;;;22.10;96.70;;;;;;5013892;28;20470;-72
2021/07/19 09:26:49;;;;;;;11.25;7.85;;;22.20;95.30;;;;;;5047667;28;20481;-71
2021/07/19 09:29:17;;;;;;;13.20;8.65;;;22.20;97.40;;;;;;5047107;28;20033;-71
2021/07/19 09:31:49;;;;;;;11.30;8.60;;;22.30;97.80;;;;;;5048162;28;20064;-71
2021/07/19 09:34:19;;;;;;;12.25;9.20;;;22.30;96.40;;;;;;5030140;28;20063;-71
2021/07/19 09:37:08;;;;;;;12.20;9.30;;;22.30;97.20;;;;;;5029756;28;20025;-71
2021/07/19 09:39:52;;;;;;;12.05;8.63;;;22.40;96.60;;;;;;5030775;28;20972;-71
2021/07/19 09:42:27;;;;;;;12.15;9.35;;;22.40;96.30;;;;;;5041580;28;20060;-69
2021/07/19 09:44:56;;;;;;;14.25;9.90;;;22.40;95.20;;;;;;5046883;28;20082;-70
2021/07/19 09:47:37;;;;;;;10.98;8.85;;;22.50;97.10;;;;;;5046766;28;20033;-70
2021/07/19 09:50:17;;;;;;;14.25;9.98;;;22.60;96.90;;;;;;5046842;28;20036;-70
2021/07/19 09:52:43;;;;;;;14.97;11.67;;;22.60;97.00;;;;;;4699044;28;9999722;-71
2021/07/19 09:55:13;;;;;;;12.45;10.15;;;22.70;97.10;;;;;;5045117;28;20025;-71
2021/07/19 09:57:45;;;;;;;12.05;9.60;;;22.80;95.90;;;;;;5045070;28;20058;-71
2021/07/19 10:00:11;;;;;;;12.82;10.27;;;22.80;96.70;;;;;;5077789;28;20548;-70
2021/07/19 10:02:43;;;;;;;16.42;10.32;;;22.80;94.30;;;;;;5028023;28;20127;-71
2021/07/19 10:05:24;;;;;;;12.93;10.02;;;22.80;93.30;;;;;;5045479;28;20025;-71
2021/07/19 10:07:54;;;;;;;14.45;11.48;;;22.90;94.10;;;;;;5046165;28;22133;-72
2021/07/19 10:10:35;;;;;;;13.90;11.32;;;22.90;92.80;;;;;;5044721;28;20040;-70
2021/07/19 10:13:02;;;;;;;15.60;11.32;;;22.90;93.30;;;;;;5046898;28;21852;-70
2021/07/19 10:15:29;;;;;;;13.25;11.68;;;22.90;93.60;;;;;;5045531;28;20478;-71
2021/07/19 10:17:56;;;;;;;15.63;11.23;;;22.90;93.30;;;;;;5010095;28;20026;-70
2021/07/19 10:20:21;;;;;;;13.65;10.85;;;23.00;92.30;;;;;;5074094;28;20709;-71
2021/07/19 10:22:50;;;;;;;13.40;10.90;;;23.00;91.70;;;;;;5025859;28;20061;-71
2021/07/19 10:25:16;;;;;;;15.35;12.13;;;23.00;92.40;;;;;;5045121;28;20142;-68
2021/07/19 10:27:42;;;;;;;15.55;12.70;;;23.10;91.30;;;;;;5046281;28;20951;-69
2021/07/19 10:30:11;;;;;;;16.02;12.68;;;23.10;93.00;;;;;;5030761;28;20044;-70
2021/07/19 10:32:42;;;;;;;14.10;12.27;;;23.10;90.90;;;;;;5046036;28;20032;-71
2021/07/19 10:35:08;;;;;;;15.63;11.93;;;23.00;90.00;;;;;;4696556;28;10000397;-70
2021/07/19 10:38:12;;;;;;;16.83;12.55;;;23.00;91.20;;;;;;5044171;28;20040;-70
2021/07/19 10:40:38;;;;;;;14.00;12.10;;;23.00;88.10;;;;;;5015700;28;20032;-71
2021/07/19 10:43:13;;;;;;;15.45;12.02;;;23.00;91.70;;;;;;5044016;28;20047;-70
2021/07/19 10:45:50;;;;;;;14.88;12.35;;;23.10;90.60;;;;;;5045539;28;20057;-71
2021/07/19 10:48:28;;;;;;;16.48;12.73;;;23.10;90.10;;;;;;5061459;28;20063;-70
2021/07/19 10:50:58;;;;;;;14.38;11.77;;;23.00;81.10;;;;;;5046717;28;20112;-73
2021/07/19 10:53:26;;;;;;;15.35;12.13;;;23.10;88.90;;;;;;5044780;28;20040;-71
2021/07/19 10:56:04;;;;;;;16.40;12.43;;;23.10;90.60;;;;;;5045614;28;20083;-73
2021/07/19 10:58:42;;;;;;;14.63;11.85;;;23.30;91.00;;;;;;5061487;28;20121;-73
2021/07/19 11:01:28;;;;;;;15.80;12.68;;;23.30;89.50;;;;;;5046239;28;20480;-73
2021/07/19 11:03:55;;;;;;;16.10;12.70;;;23.20;85.60;;;;;;5046553;28;20033;-73
2021/07/19 11:06:36;;;;;;;14.98;12.10;;;23.20;87.80;;;;;;5028804;28;20078;-72
2021/07/19 11:09:05;;;;;;;15.40;12.52;;;23.20;88.20;;;;;;5060723;28;20849;-72
2021/07/19 11:11:39;;;;;;;16.00;12.77;;;23.20;89.50;;;;;;5011743;28;20099;-72
2021/07/19 11:14:06;;;;;;;17.85;12.40;;;23.20;86.80;;;;;;5028743;28;20029;-72
2021/07/19 11:16:42;;;;;;;17.92;12.95;;;23.20;84.90;;;;;;5045428;28;20044;-71
2021/07/19 11:19:08;;;;;;;14.90;13.18;;;23.30;86.40;;;;;;5025631;28;20114;-71
2021/07/19 11:21:33;;;;;;;15.25;12.48;;;23.30;88.90;;;;;;5045001;28;20028;-71
2021/07/19 11:24:13;;;;;;;16.50;12.50;;;23.40;90.10;;;;;;5045990;28;20121;-71
2021/07/19 11:26:53;;;;;;;15.30;12.85;;;23.40;87.40;;;;;;5006341;28;20028;-72
2021/07/19 11:29:41;;;;;;;14.23;12.70;;;23.50;85.80;;;;;;5045649;28;20097;-71
2021/07/19 11:32:11;;;;;;;15.13;12.75;;;23.50;86.50;;;;;;5007455;28;20033;-71
2021/07/19 11:34:40;;;;;;;15.70;12.98;;;23.50;88.70;;;;;;5038066;28;20035;-72
2021/07/19 11:37:05;;;;;;;16.40;12.85;;;23.50;88.80;;;;;;5021462;28;20030;-71
2021/07/19 11:39:41;;;;;;;17.40;13.05;;;23.60;87.10;;;;;;5027126;28;20029;-71
2021/07/19 11:42:07;;;;;;;16.08;13.30;;;23.60;83.40;;;;;;5044335;28;20028;-71
2021/07/19 11:44:33;;;;;;;17.77;12.68;;;23.50;84.40;;;;;;5044199;28;20021;-72
2021/07/19 11:46:59;;;;;;;15.25;13.13;;;23.70;85.50;;;;;;5027689;28;20032;-71
2021/07/19 11:49:24;;;;;;;16.40;12.55;;;23.70;86.10;;;;;;5023070;28;20371;-71
2021/07/19 11:51:50;;;;;;;17.65;13.00;;;23.70;84.40;;;;;;5026717;28;20029;-71
2021/07/19 11:54:16;;;;;;;14.88;12.52;;;23.80;85.80;;;;;;5059547;28;20129;-71
2021/07/19 11:56:46;;;;;;;14.10;12.57;;;23.80;84.40;;;;;;5045607;28;20037;-71
2021/07/19 11:59:14;;;;;;;17.17;13.50;;;23.90;85.50;;;;;;5046569;28;20080;-71
2021/07/19 12:01:44;;;;;;;16.20;13.65;;;23.90;83.90;;;;;;5031322;28;20036;-71
2021/07/19 12:04:12;;;;;;;16.52;13.45;;;24.00;87.40;;;;;;5032200;28;20454;-72
2021/07/19 12:06:51;;;;;;;16.42;13.02;;;24.10;89.90;;;;;;5047779;28;20490;-71
2021/07/19 12:09:20;;;;;;;15.93;13.35;;;24.30;87.70;;;;;;5048058;28;20060;-71
2021/07/19 12:11:53;;;;;;;16.33;13.57;;;24.20;84.40;;;;;;5063808;28;20386;-71
2021/07/19 12:14:21;;;;;;;16.33;13.13;;;24.30;82.20;;;;;;5030806;28;20016;-70
2021/07/19 12:16:48;;;;;;;17.08;13.90;;;24.40;82.30;;;;;;5032003;28;20128;-70
2021/07/19 12:19:16;;;;;;;16.70;13.70;;;24.40;80.90;;;;;;5049324;28;20040;-71
2021/07/19 12:21:55;;;;;;;16.05;13.63;;;24.40;81.70;;;;;;5002792;28;20533;-72
2021/07/19 12:24:27;;;;;;;17.33;13.60;;;24.40;81.00;;;;;;5032297;28;20452;-71
2021/07/19 12:26:55;;;;;;;16.42;13.30;;;24.40;79.50;;;;;;5047850;28;20068;-71
2021/07/19 12:29:42;;;;;;;16.52;13.65;;;24.60;83.90;;;;;;5013236;28;20041;-72
2021/07/19 12:32:11;;;;;;;15.38;13.55;;;24.60;79.60;;;;;;5048153;28;20091;-71
2021/07/19 12:34:43;;;;;;;15.10;13.50;;;24.60;72.90;;;;;;5016800;28;20025;-71
2021/07/19 12:37:17;;;;;;;14.45;12.95;;;24.70;78.50;;;;;;5029090;28;20025;-71
2021/07/19 12:39:48;;;;;;;16.58;13.73;;;24.80;79.70;;;;;;5047269;28;20028;-71
2021/07/19 12:42:15;;;;;;;17.73;14.27;;;24.80;80.80;;;;;;5030907;28;20374;-71
2021/07/19 12:44:44;;;;;;;18.27;13.70;;;24.90;84.10;;;;;;5000536;28;20021;-72
2021/07/19 12:47:11;;;;;;;16.70;13.80;;;25.00;82.10;;;;;;5028341;28;20476;-71
2021/07/19 12:49:38;;;;;;;15.90;14.20;;;25.00;81.20;;;;;;5021845;28;20028;-71